createdAt,value
2022-11-16T00:00:41.841Z,85.57
2022-11-16T00:06:04.350Z,85.86
2022-11-16T00:11:24.862Z,85.80
2022-11-16T00:16:45.672Z,85.86
2022-11-16T00:22:06.078Z,85.87
2022-11-16T00:27:26.991Z,86.13
2022-11-16T00:32:47.610Z,86.07
2022-11-16T00:38:08.429Z,85.95
2022-11-16T00:43:29.253Z,85.91
2022-11-16T00:48:49.867Z,86.08
2022-11-16T00:54:10.186Z,86.12
2022-11-16T00:59:30.905Z,86.10
2022-11-16T01:04:52.891Z,86.23
2022-11-16T01:10:17.018Z,86.41
2022-11-16T01:15:37.814Z,86.27
2022-11-16T01:20:58.399Z,86.13
2022-11-16T01:26:18.968Z,86.10
2022-11-16T01:31:40.312Z,86.18
2022-11-16T01:37:01.032Z,85.93
2022-11-16T01:42:27.965Z,85.89
2022-11-16T01:47:53.965Z,85.93
2022-11-16T01:53:19.304Z,85.86
2022-11-16T01:58:45.562Z,85.94
2022-11-16T02:04:14.830Z,85.77
2022-11-16T02:10:04.816Z,85.65
2022-11-16T02:15:38.579Z,85.65
2022-11-16T02:21:44.981Z,85.79
2022-11-16T02:27:29.841Z,85.67
2022-11-16T02:32:56.327Z,85.66
2022-11-16T02:38:25.783Z,85.51
2022-11-16T02:43:52.533Z,85.68
2022-11-16T02:49:19.788Z,85.68
2022-11-16T02:54:40.478Z,85.81
2022-11-16T03:00:02.638Z,85.74
2022-11-16T03:05:38.971Z,85.67
2022-11-16T03:11:26.475Z,85.68
2022-11-16T03:16:55.622Z,85.67
2022-11-16T03:22:45.127Z,85.83
2022-11-16T03:28:29.436Z,85.57
2022-11-16T03:33:58.222Z,85.34
2022-11-16T03:39:25.752Z,85.45
2022-11-16T03:44:49.260Z,85.41
2022-11-16T03:50:10.149Z,85.16
2022-11-16T03:55:34.767Z,85.25
2022-11-16T04:01:00.335Z,85.20
2022-11-16T04:06:41.481Z,85.26
2022-11-16T04:12:21.043Z,85.18
2022-11-16T04:18:01.432Z,85.33
2022-11-16T04:23:42.600Z,85.13
2022-11-16T04:29:03.137Z,85.15
2022-11-16T04:34:42.999Z,85.05
2022-11-16T04:40:05.166Z,85.02
2022-11-16T04:45:45.957Z,85.12
2022-11-16T04:51:07.831Z,85.02
2022-11-16T04:56:29.143Z,85.00
2022-11-16T05:02:08.483Z,84.94
2022-11-16T05:07:35.805Z,85.15
2022-11-16T05:13:03.286Z,85.13
2022-11-16T05:18:24.100Z,84.88
2022-11-16T05:24:03.695Z,84.66
2022-11-16T05:29:25.524Z,84.52
2022-11-16T05:34:46.510Z,84.53
2022-11-16T05:40:09.636Z,84.57
2022-11-16T05:45:36.897Z,84.75
2022-11-16T05:50:59.545Z,84.66
2022-11-16T05:56:22.422Z,84.60
2022-11-16T06:01:43.832Z,84.66
2022-11-16T06:07:04.867Z,84.71
2022-11-16T06:12:29.537Z,84.50
2022-11-16T06:17:50.527Z,84.44
2022-11-16T06:23:11.292Z,84.01
2022-11-16T06:28:33.166Z,84.22
2022-11-16T06:33:54.070Z,84.13
2022-11-16T06:39:19.175Z,84.26
2022-11-16T06:44:40.272Z,83.95
2022-11-16T06:50:03.953Z,84.48
2022-11-16T06:55:24.865Z,84.44
2022-11-16T07:00:46.178Z,84.74
2022-11-16T07:06:10.634Z,84.76
2022-11-16T07:11:34.710Z,84.84
2022-11-16T07:16:59.802Z,84.95
2022-11-16T07:22:22.079Z,84.84
2022-11-16T07:27:44.609Z,85.13
2022-11-16T07:33:05.558Z,85.04
2022-11-16T07:38:48.894Z,85.25
2022-11-16T07:44:12.247Z,85.08
2022-11-16T07:49:35.807Z,85.10
2022-11-16T07:55:09.424Z,85.09
2022-11-16T08:00:29.822Z,84.95
2022-11-16T08:06:03.769Z,85.09
2022-11-16T08:11:24.803Z,85.08
2022-11-16T08:16:47.175Z,85.00
2022-11-16T08:22:09.065Z,84.96
2022-11-16T08:27:32.149Z,85.08
2022-11-16T08:32:53.282Z,84.54
2022-11-16T08:38:14.719Z,84.96
2022-11-16T08:43:35.916Z,85.21
2022-11-16T08:48:57.860Z,85.23
2022-11-16T08:54:18.920Z,84.98
2022-11-16T08:59:39.846Z,84.61
2022-11-16T09:05:05.756Z,84.29
2022-11-16T09:10:26.578Z,84.09
2022-11-16T09:15:47.187Z,84.28
2022-11-16T09:21:08.246Z,84.63
2022-11-16T09:26:29.842Z,84.03
2022-11-16T09:31:50.238Z,84.02
2022-11-16T09:37:11.135Z,83.82
2022-11-16T09:42:52.220Z,83.97
2022-11-16T09:48:14.675Z,83.95
2022-11-16T09:53:38.356Z,84.04
2022-11-16T09:59:15.031Z,83.74
2022-11-16T10:04:56.727Z,83.50
2022-11-16T10:10:34.818Z,83.90
2022-11-16T10:15:58.275Z,84.13
2022-11-16T10:21:27.963Z,84.32
2022-11-16T10:27:19.161Z,84.24
2022-11-16T10:33:02.145Z,84.23
2022-11-16T10:38:33.424Z,84.38
2022-11-16T10:43:57.855Z,84.50
2022-11-16T10:49:27.114Z,84.65
2022-11-16T10:54:47.732Z,84.83
2022-11-16T11:00:12.893Z,84.80
2022-11-16T11:05:36.205Z,84.59
2022-11-16T11:11:24.400Z,84.72
2022-11-16T11:16:45.117Z,84.81
2022-11-16T11:22:05.645Z,85.11
2022-11-16T11:27:33.730Z,85.03
2022-11-16T11:32:54.530Z,85.01
2022-11-16T11:38:16.096Z,85.14
2022-11-16T11:43:37.532Z,85.11
2022-11-16T11:49:08.746Z,84.96
2022-11-16T11:54:34.731Z,84.89
2022-11-16T11:59:55.636Z,84.62
2022-11-16T12:05:44.391Z,84.77
2022-11-16T12:11:36.737Z,84.88
2022-11-16T12:17:07.134Z,84.65
2022-11-16T12:22:51.792Z,84.61
2022-11-16T12:28:31.180Z,84.41
2022-11-16T12:34:07.444Z,84.37
2022-11-16T12:39:35.066Z,84.30
2022-11-16T12:45:18.433Z,84.45
2022-11-16T12:51:04.147Z,84.36
2022-11-16T12:56:33.465Z,84.17
2022-11-16T13:02:03.363Z,83.87
2022-11-16T13:07:43.829Z,83.98
2022-11-16T13:18:54.603Z,83.78
2022-11-16T13:24:29.667Z,83.65
2022-11-16T13:29:56.080Z,83.51
2022-11-16T13:35:18.402Z,83.37
2022-11-16T13:40:40.828Z,83.43
2022-11-16T13:46:01.251Z,83.35
2022-11-16T13:51:23.103Z,83.38
2022-11-16T13:56:48.929Z,83.43
2022-11-16T14:02:31.608Z,83.45
2022-11-16T14:07:52.289Z,83.36
2022-11-16T14:13:36.719Z,83.46
2022-11-16T14:19:02.850Z,83.33
2022-11-16T14:24:33.857Z,83.27
2022-11-16T14:30:16.054Z,83.34
2022-11-16T14:35:39.804Z,83.22
2022-11-16T14:41:03.402Z,83.32
2022-11-16T14:46:29.687Z,83.33
2022-11-16T14:51:55.042Z,83.33
2022-11-16T14:57:20.923Z,83.26
2022-11-16T15:02:43.451Z,83.38
2022-11-16T15:08:17.003Z,83.39
2022-11-16T15:13:38.000Z,83.40
2022-11-16T15:19:00.706Z,83.40
2022-11-16T15:24:30.355Z,83.42
2022-11-16T15:29:52.080Z,83.31
2022-11-16T15:35:19.049Z,83.47
2022-11-16T15:40:40.486Z,83.46
2022-11-16T15:46:02.180Z,83.39
2022-11-16T15:51:23.299Z,83.58
2022-11-16T15:56:43.836Z,83.57
2022-11-16T16:02:05.000Z,83.48
2022-11-16T16:07:45.092Z,83.60
2022-11-16T16:13:25.530Z,83.79
2022-11-16T16:18:46.197Z,83.71
2022-11-16T16:24:09.415Z,83.59
2022-11-16T16:29:29.754Z,83.51
2022-11-16T16:34:51.028Z,83.56
2022-11-16T16:40:11.503Z,83.76
2022-11-16T16:45:38.810Z,83.77
2022-11-16T16:50:59.487Z,83.88
2022-11-16T16:56:19.983Z,84.04
2022-11-16T17:01:41.073Z,84.18
2022-11-16T17:07:01.899Z,84.14
2022-11-16T17:12:22.505Z,83.96
2022-11-16T17:17:43.277Z,84.28
2022-11-16T17:23:04.175Z,84.24
2022-11-16T17:28:24.792Z,84.49
2022-11-16T17:33:45.356Z,84.55
2022-11-16T17:39:06.382Z,84.39
2022-11-16T17:44:27.116Z,84.39
2022-11-16T17:49:47.817Z,84.50
2022-11-16T17:55:08.688Z,84.42
2022-11-16T18:00:29.051Z,84.47
2022-11-16T18:05:50.749Z,84.40
2022-11-16T18:11:20.713Z,84.49
2022-11-16T18:16:43.352Z,84.48
2022-11-16T18:22:04.290Z,84.38
2022-11-16T18:27:24.934Z,84.65
2022-11-16T18:32:45.869Z,84.17
2022-11-16T18:38:08.135Z,84.49
2022-11-16T18:43:29.426Z,84.42
2022-11-16T18:48:50.586Z,84.67
2022-11-16T18:54:11.646Z,84.52
2022-11-16T18:59:32.295Z,84.39
2022-11-16T19:04:53.396Z,84.54
2022-11-16T19:10:14.697Z,84.51
2022-11-16T19:15:35.984Z,84.57
2022-11-16T19:21:11.523Z,84.66
2022-11-16T19:26:32.855Z,84.66
2022-11-16T19:37:42.900Z,84.65
2022-11-16T19:43:03.523Z,84.40
2022-11-16T19:48:24.231Z,84.48
2022-11-16T19:53:44.972Z,84.49
2022-11-16T19:59:05.694Z,84.09
2022-11-16T20:04:29.152Z,84.14
2022-11-16T20:09:53.326Z,83.69
2022-11-16T20:15:13.971Z,83.47
2022-11-16T20:20:34.638Z,83.45
2022-11-16T20:25:55.207Z,83.35
2022-11-16T20:31:17.810Z,83.06
2022-11-16T20:36:38.665Z,82.75
2022-11-16T20:41:59.493Z,82.40
2022-11-16T20:47:19.897Z,81.87
2022-11-16T20:52:43.174Z,81.50
2022-11-16T20:58:06.677Z,81.12
2022-11-16T21:03:28.079Z,80.73
2022-11-16T21:08:48.634Z,80.39
2022-11-16T21:14:18.756Z,80.07
2022-11-16T21:19:39.350Z,79.80
2022-11-16T21:25:00.711Z,79.30
2022-11-16T21:30:21.128Z,78.90
2022-11-16T21:35:41.563Z,78.42
2022-11-16T21:41:02.375Z,78.23
2022-11-16T21:46:25.095Z,77.94
2022-11-16T21:51:45.656Z,77.80
2022-11-16T21:57:06.304Z,77.69
2022-11-16T22:02:27.031Z,77.38
2022-11-16T22:07:47.666Z,77.49
2022-11-16T22:13:08.482Z,77.29
2022-11-16T22:18:32.794Z,77.20
2022-11-16T22:23:53.399Z,76.92
2022-11-16T22:29:13.702Z,77.04
2022-11-16T22:34:34.282Z,76.80
2022-11-16T22:39:55.128Z,76.61
2022-11-16T22:45:15.836Z,76.46
2022-11-16T22:50:36.441Z,76.36
2022-11-16T22:56:03.482Z,76.38
2022-11-16T23:01:24.440Z,76.51
2022-11-16T23:06:45.249Z,76.20
2022-11-16T23:12:27.908Z,75.99
2022-11-16T23:17:48.422Z,75.72
2022-11-16T23:23:36.268Z,75.50
2022-11-16T23:29:08.903Z,75.25
2022-11-16T23:34:29.558Z,75.17
2022-11-16T23:39:50.075Z,75.29
2022-11-16T23:45:10.879Z,75.03
2022-11-16T23:50:31.624Z,74.98
2022-11-16T23:55:51.889Z,75.06
